sensor_id;sensor_type;location;lat;lon;timestamp;pressure;altitude;pressure_sealevel;temperature;humidity
72892;BME280;61032;50.782;6.818;2022-11-09T00:00:29;99728.28;;;14.89;68.67
72892;BME280;61032;50.782;6.818;2022-11-09T00:01:30;99731.44;;;14.87;68.94
72892;BME280;61032;50.782;6.818;2022-11-09T00:02:31;99730.69;;;14.90;69.00
72892;BME280;61032;50.782;6.818;2022-11-09T00:03:32;99721.94;;;14.88;68.46
72892;BME280;61032;50.782;6.818;2022-11-09T00:04:32;99719.19;;;14.88;68.68
72892;BME280;61032;50.782;6.818;2022-11-09T00:05:33;99714.44;;;14.89;68.70
72892;BME280;61032;50.782;6.818;2022-11-09T00:06:34;99717.16;;;14.85;68.93
72892;BME280;61032;50.782;6.818;2022-11-09T00:07:35;99715.63;;;14.88;68.93
72892;BME280;61032;50.782;6.818;2022-11-09T00:08:36;99718.75;;;14.86;68.76
72892;BME280;61032;50.782;6.818;2022-11-09T00:09:37;99708.06;;;14.85;68.69
72892;BME280;61032;50.782;6.818;2022-11-09T00:10:37;99713.56;;;14.81;68.82
72892;BME280;61032;50.782;6.818;2022-11-09T00:11:37;99721.06;;;14.81;68.75
72892;BME280;61032;50.782;6.818;2022-11-09T00:12:38;99721.09;;;14.84;68.96
72892;BME280;61032;50.782;6.818;2022-11-09T00:13:40;99718.75;;;14.86;68.82
72892;BME280;61032;50.782;6.818;2022-11-09T00:14:40;99718.75;;;14.86;68.56
72892;BME280;61032;50.782;6.818;2022-11-09T00:15:40;99720.34;;;14.87;68.71
72892;BME280;61032;50.782;6.818;2022-11-09T00:16:41;99722.31;;;14.87;68.69
72892;BME280;61032;50.782;6.818;2022-11-09T00:17:41;99719.56;;;14.87;68.66
72892;BME280;61032;50.782;6.818;2022-11-09T00:18:42;99727.50;;;14.88;68.32
72892;BME280;61032;50.782;6.818;2022-11-09T00:19:46;99722.75;;;14.89;68.27
72892;BME280;61032;50.782;6.818;2022-11-09T00:20:46;99721.16;;;14.88;68.34
72892;BME280;61032;50.782;6.818;2022-11-09T00:21:47;99729.41;;;14.84;68.24
72892;BME280;61032;50.782;6.818;2022-11-09T00:22:47;99714.06;;;14.90;68.13
72892;BME280;61032;50.782;6.818;2022-11-09T00:23:48;99722.38;;;14.90;68.02
72892;BME280;61032;50.782;6.818;2022-11-09T00:24:49;99719.66;;;14.94;67.67
72892;BME280;61032;50.782;6.818;2022-11-09T00:25:49;99731.94;;;14.96;67.39
72892;BME280;61032;50.782;6.818;2022-11-09T00:26:49;99722.84;;;14.96;67.63
72892;BME280;61032;50.782;6.818;2022-11-09T00:27:50;99728.31;;;14.92;67.49
72892;BME280;61032;50.782;6.818;2022-11-09T00:28:50;99719.19;;;14.88;67.38
72892;BME280;61032;50.782;6.818;2022-11-09T00:29:51;99733.41;;;14.87;67.52
72892;BME280;61032;50.782;6.818;2022-11-09T00:30:58;99727.84;;;14.87;67.50
72892;BME280;61032;50.782;6.818;2022-11-09T00:31:58;99725.13;;;14.90;67.51
72892;BME280;61032;50.782;6.818;2022-11-09T00:32:58;99722.78;;;14.92;67.48
72892;BME280;61032;50.782;6.818;2022-11-09T00:33:58;99719.66;;;14.97;66.63
72892;BME280;61032;50.782;6.818;2022-11-09T00:34:59;99714.53;;;14.99;66.89
72892;BME280;61032;50.782;6.818;2022-11-09T00:36:03;99712.56;;;15.00;66.95
72892;BME280;61032;50.782;6.818;2022-11-09T00:37:06;99717.31;;;14.99;66.70
72892;BME280;61032;50.782;6.818;2022-11-09T00:38:06;99722.84;;;14.99;66.80
72892;BME280;61032;50.782;6.818;2022-11-09T00:39:07;99714.97;;;15.01;66.63
72892;BME280;61032;50.782;6.818;2022-11-09T00:40:08;99719.78;;;15.08;66.52
72892;BME280;61032;50.782;6.818;2022-11-09T00:41:10;99721.38;;;15.09;66.42
72892;BME280;61032;50.782;6.818;2022-11-09T00:42:10;99722.97;;;15.10;66.30
72892;BME280;61032;50.782;6.818;2022-11-09T00:43:11;99721.75;;;15.07;65.92
72892;BME280;61032;50.782;6.818;2022-11-09T00:44:11;99719.75;;;15.04;66.54
72892;BME280;61032;50.782;6.818;2022-11-09T00:45:11;99720.97;;;15.07;66.64
72892;BME280;61032;50.782;6.818;2022-11-09T00:46:12;99716.66;;;15.09;66.33
72892;BME280;61032;50.782;6.818;2022-11-09T00:47:12;99719.75;;;15.04;66.59
72892;BME280;61032;50.782;6.818;2022-11-09T00:48:12;99713.84;;;15.06;66.45
72892;BME280;61032;50.782;6.818;2022-11-09T00:49:13;99710.69;;;15.07;66.65
72892;BME280;61032;50.782;6.818;2022-11-09T00:50:13;99719.00;;;15.07;66.55
72892;BME280;61032;50.782;6.818;2022-11-09T00:51:13;99731.69;;;15.12;66.42
72892;BME280;61032;50.782;6.818;2022-11-09T00:52:14;99721.00;;;15.10;66.52
72892;BME280;61032;50.782;6.818;2022-11-09T00:53:14;99719.00;;;15.07;66.41
72892;BME280;61032;50.782;6.818;2022-11-09T00:54:14;99718.56;;;15.05;66.72
72892;BME280;61032;50.782;6.818;2022-11-09T00:55:16;99725.25;;;15.01;66.67
72892;BME280;61032;50.782;6.818;2022-11-09T00:56:16;99724.44;;;15.00;66.95
72892;BME280;61032;50.782;6.818;2022-11-09T00:57:17;99728.38;;;14.99;66.69
72892;BME280;61032;50.782;6.818;2022-11-09T00:58:17;99723.28;;;15.01;66.64
72892;BME280;61032;50.782;6.818;2022-11-09T00:59:17;99722.06;;;14.99;66.77
72892;BME280;61032;50.782;6.818;2022-11-09T01:00:21;99724.03;;;14.98;66.97
72892;BME280;61032;50.782;6.818;2022-11-09T01:01:22;99720.47;;;14.98;66.87
72892;BME280;61032;50.782;6.818;2022-11-09T01:02:23;99713.38;;;15.00;66.88
72892;BME280;61032;50.782;6.818;2022-11-09T01:03:24;99718.94;;;15.04;66.63
72892;BME280;61032;50.782;6.818;2022-11-09T01:04:25;99715.34;;;15.00;66.56
72892;BME280;61032;50.782;6.818;2022-11-09T01:05:25;99718.13;;;15.00;66.49
72892;BME280;61032;50.782;6.818;2022-11-09T01:06:25;99718.13;;;15.00;66.79
72892;BME280;61032;50.782;6.818;2022-11-09T01:07:25;99722.09;;;15.02;66.95
72892;BME280;61032;50.782;6.818;2022-11-09T01:08:26;99720.91;;;15.03;66.77
72892;BME280;61032;50.782;6.818;2022-11-09T01:09:26;99715.75;;;15.02;66.61
72892;BME280;61032;50.782;6.818;2022-11-09T01:10:26;99717.72;;;15.01;66.77
72892;BME280;61032;50.782;6.818;2022-11-09T01:11:27;99719.75;;;15.04;66.78
72892;BME280;61032;50.782;6.818;2022-11-09T01:12:27;99722.84;;;14.99;66.80
72892;BME280;61032;50.782;6.818;2022-11-09T01:13:27;99723.63;;;14.96;66.93
72892;BME280;61032;50.782;6.818;2022-11-09T01:14:27;99723.63;;;14.96;66.98
72892;BME280;61032;50.782;6.818;2022-11-09T01:15:28;99728.38;;;14.96;67.21
72892;BME280;61032;50.782;6.818;2022-11-09T01:16:28;99722.78;;;14.92;67.30
72892;BME280;61032;50.782;6.818;2022-11-09T01:17:29;99723.59;;;14.93;66.89
72892;BME280;61032;50.782;6.818;2022-11-09T01:18:29;99727.50;;;14.88;67.11
72892;BME280;61032;50.782;6.818;2022-11-09T01:19:30;99719.56;;;14.87;67.02
72892;BME280;61032;50.782;6.818;2022-11-09T01:20:30;99721.19;;;14.91;67.05
72892;BME280;61032;50.782;6.818;2022-11-09T01:21:30;99721.56;;;14.90;67.02
72892;BME280;61032;50.782;6.818;2022-11-09T01:22:30;99717.25;;;14.92;66.93
72892;BME280;61032;50.782;6.818;2022-11-09T01:23:31;99724.75;;;14.92;66.64
72892;BME280;61032;50.782;6.818;2022-11-09T01:24:32;99726.72;;;14.91;66.64
72892;BME280;61032;50.782;6.818;2022-11-09T01:25:32;99718.00;;;14.89;66.96
72892;BME280;61032;50.782;6.818;2022-11-09T01:26:33;99721.63;;;14.93;66.44
72892;BME280;61032;50.782;6.818;2022-11-09T01:27:33;99730.34;;;14.95;66.14
72892;BME280;61032;50.782;6.818;2022-11-09T01:28:34;99721.19;;;14.91;66.35
72892;BME280;61032;50.782;6.818;2022-11-09T01:29:34;99723.91;;;14.88;66.47
72892;BME280;61032;50.782;6.818;2022-11-09T01:30:37;99723.53;;;14.89;66.67
72892;BME280;61032;50.782;6.818;2022-11-09T01:31:37;99727.91;;;14.90;66.72
72892;BME280;61032;50.782;6.818;2022-11-09T01:32:38;99723.53;;;14.89;66.41
72892;BME280;61032;50.782;6.818;2022-11-09T01:33:39;99735.03;;;14.91;66.41
72892;BME280;61032;50.782;6.818;2022-11-09T01:34:39;99725.59;;;14.96;66.15
72892;BME280;61032;50.782;6.818;2022-11-09T01:35:40;99724.38;;;14.93;66.19
72892;BME280;61032;50.782;6.818;2022-11-09T01:36:40;99727.94;;;14.94;65.95
72892;BME280;61032;50.782;6.818;2022-11-09T01:37:40;99739.41;;;14.92;66.23
72892;BME280;61032;50.782;6.818;2022-11-09T01:38:41;99722.78;;;14.92;66.42
72892;BME280;61032;50.782;6.818;2022-11-09T01:39:42;99722.00;;;14.92;66.10
72892;BME280;61032;50.782;6.818;2022-11-09T01:40:42;99727.56;;;14.95;66.40
72892;BME280;61032;50.782;6.818;2022-11-09T01:41:42;99721.19;;;14.91;66.27
72892;BME280;61032;50.782;6.818;2022-11-09T01:42:43;99723.53;;;14.89;66.10
72892;BME280;61032;50.782;6.818;2022-11-09T01:43:43;99721.94;;;14.88;66.53
72892;BME280;61032;50.782;6.818;2022-11-09T01:44:44;99729.06;;;14.89;66.22
72892;BME280;61032;50.782;6.818;2022-11-09T01:45:54;99725.19;;;14.94;65.95
72892;BME280;61032;50.782;6.818;2022-11-09T01:46:59;99720.41;;;14.91;66.22
72892;BME280;61032;50.782;6.818;2022-11-09T01:48:10;99723.22;;;14.94;65.99
72892;BME280;61032;50.782;6.818;2022-11-09T01:49:23;99724.28;;;14.86;66.42
72892;BME280;61032;50.782;6.818;2022-11-09T01:50:52;99734.19;;;14.87;66.62
72892;BME280;61032;50.782;6.818;2022-11-09T01:52:09;99728.28;;;14.89;66.71
72892;BME280;61032;50.782;6.818;2022-11-09T01:53:18;99732.22;;;14.88;66.34
72892;BME280;61032;50.782;6.818;2022-11-09T01:54:25;99724.28;;;14.86;66.45
72892;BME280;61032;50.782;6.818;2022-11-09T01:55:26;99728.22;;;14.85;66.62
72892;BME280;61032;50.782;6.818;2022-11-09T01:56:28;99728.22;;;14.85;66.69
72892;BME280;61032;50.782;6.818;2022-11-09T01:57:35;99726.66;;;14.84;66.66
72892;BME280;61032;50.782;6.818;2022-11-09T01:58:45;99729.78;;;14.83;66.88
72892;BME280;61032;50.782;6.818;2022-11-09T01:59:51;99738.88;;;14.83;66.78
72892;BME280;61032;50.782;6.818;2022-11-09T02:00:55;99735.31;;;14.83;67.01
72892;BME280;61032;50.782;6.818;2022-11-09T02:01:58;99743.25;;;14.84;66.88
72892;BME280;61032;50.782;6.818;2022-11-09T02:03:12;99737.66;;;14.81;66.75
72892;BME280;61032;50.782;6.818;2022-11-09T02:04:24;99742.34;;;14.76;67.00
72892;BME280;61032;50.782;6.818;2022-11-09T02:05:28;99732.88;;;14.74;66.79
72892;BME280;61032;50.782;6.818;2022-11-09T02:06:30;99739.19;;;14.74;67.08
72892;BME280;61032;50.782;6.818;2022-11-09T02:07:32;99734.47;;;14.75;66.98
72892;BME280;61032;50.782;6.818;2022-11-09T02:08:33;99727.69;;;14.72;67.10
72892;BME280;61032;50.782;6.818;2022-11-09T02:09:42;99732.09;;;14.77;67.11
72892;BME280;61032;50.782;6.818;2022-11-09T02:11:55;99730.47;;;14.72;67.10
72892;BME280;61032;50.782;6.818;2022-11-09T02:12:57;99733.63;;;14.71;67.22
72892;BME280;61032;50.782;6.818;2022-11-09T02:13:59;99742.72;;;14.71;67.39
72892;BME280;61032;50.782;6.818;2022-11-09T02:15:04;99735.59;;;14.70;67.04
72892;BME280;61032;50.782;6.818;2022-11-09T02:16:08;99733.56;;;14.67;67.28
72892;BME280;61032;50.782;6.818;2022-11-09T02:17:10;99724.47;;;14.67;67.46
72892;BME280;61032;50.782;6.818;2022-11-09T02:18:10;99732.72;;;14.63;67.54
72892;BME280;61032;50.782;6.818;2022-11-09T02:19:11;99726.75;;;14.61;67.87
72892;BME280;61032;50.782;6.818;2022-11-09T02:20:12;99735.84;;;14.62;67.61
72892;BME280;61032;50.782;6.818;2022-11-09T02:21:13;99731.53;;;14.64;67.62
72892;BME280;61032;50.782;6.818;2022-11-09T02:22:14;99725.59;;;14.62;67.60
72892;BME280;61032;50.782;6.818;2022-11-09T02:23:14;99725.97;;;14.61;67.54
72892;BME280;61032;50.782;6.818;2022-11-09T02:24:15;99725.59;;;14.62;67.90
72892;BME280;61032;50.782;6.818;2022-11-09T02:25:16;99735.44;;;14.60;67.58
72892;BME280;61032;50.782;6.818;2022-11-09T02:26:30;99737.78;;;14.58;67.71
72892;BME280;61032;50.782;6.818;2022-11-09T02:27:32;99731.81;;;14.56;67.99
72892;BME280;61032;50.782;6.818;2022-11-09T02:28:34;99727.50;;;14.55;67.82
72892;BME280;61032;50.782;6.818;2022-11-09T02:29:38;99727.88;;;14.53;67.74
72892;BME280;61032;50.782;6.818;2022-11-09T02:30:41;99729.47;;;14.58;67.78
72892;BME280;61032;50.782;6.818;2022-11-09T02:31:45;99721.56;;;14.56;67.79
72892;BME280;61032;50.782;6.818;2022-11-09T02:32:48;99718.34;;;14.51;67.98
72892;BME280;61032;50.782;6.818;2022-11-09T02:33:53;99717.53;;;14.50;68.02
72892;BME280;61032;50.782;6.818;2022-11-09T02:34:54;99724.66;;;14.51;68.15
72892;BME280;61032;50.782;6.818;2022-11-09T02:35:55;99724.25;;;14.49;68.11
72892;BME280;61032;50.782;6.818;2022-11-09T02:36:55;99718.34;;;14.51;68.14
72892;BME280;61032;50.782;6.818;2022-11-09T02:37:55;99731.38;;;14.50;68.15
72892;BME280;61032;50.782;6.818;2022-11-09T02:38:56;99723.03;;;14.47;68.21
72892;BME280;61032;50.782;6.818;2022-11-09T02:39:57;99721.06;;;14.47;68.00
72892;BME280;61032;50.782;6.818;2022-11-09T02:41:00;99716.00;;;14.53;68.19
72892;BME280;61032;50.782;6.818;2022-11-09T02:42:04;99719.50;;;14.50;68.27
72892;BME280;61032;50.782;6.818;2022-11-09T02:43:07;99716.69;;;14.46;68.61
72892;BME280;61032;50.782;6.818;2022-11-09T02:44:09;99713.50;;;14.44;68.51
72892;BME280;61032;50.782;6.818;2022-11-09T02:45:10;99719.84;;;14.44;68.48
72892;BME280;61032;50.782;6.818;2022-11-09T02:46:10;99714.31;;;14.44;68.59
72892;BME280;61032;50.782;6.818;2022-11-09T02:47:10;99718.66;;;14.46;68.76
72892;BME280;61032;50.782;6.818;2022-11-09T02:48:10;99725.41;;;14.48;68.62
72892;BME280;61032;50.782;6.818;2022-11-09T02:49:11;99721.81;;;14.44;68.64
72892;BME280;61032;50.782;6.818;2022-11-09T02:50:11;99714.31;;;14.44;68.45
72892;BME280;61032;50.782;6.818;2022-11-09T02:51:11;99707.03;;;14.36;68.88
72892;BME280;61032;50.782;6.818;2022-11-09T02:52:12;99722.03;;;14.35;69.10
72892;BME280;61032;50.782;6.818;2022-11-09T02:53:12;99720.13;;;14.39;68.92
72892;BME280;61032;50.782;6.818;2022-11-09T02:54:12;99718.16;;;14.40;69.05
72892;BME280;61032;50.782;6.818;2022-11-09T02:55:12;99719.00;;;14.40;68.49
72892;BME280;61032;50.782;6.818;2022-11-09T02:56:13;99721.38;;;14.42;68.90
72892;BME280;61032;50.782;6.818;2022-11-09T02:57:13;99713.50;;;14.44;69.01
72892;BME280;61032;50.782;6.818;2022-11-09T02:58:13;99722.19;;;14.42;68.89
72892;BME280;61032;50.782;6.818;2022-11-09T02:59:14;99720.13;;;14.39;69.08
72892;BME280;61032;50.782;6.818;2022-11-09T03:00:15;99720.13;;;14.39;69.19
72892;BME280;61032;50.782;6.818;2022-11-09T03:01:15;99714.91;;;14.34;69.26
72892;BME280;61032;50.782;6.818;2022-11-09T03:02:15;99718.09;;;14.33;69.47
72892;BME280;61032;50.782;6.818;2022-11-09T03:03:16;99722.03;;;14.32;69.33
72892;BME280;61032;50.782;6.818;2022-11-09T03:04:16;99719.69;;;14.34;69.62
72892;BME280;61032;50.782;6.818;2022-11-09T03:05:16;99728.34;;;14.32;69.47
72892;BME280;61032;50.782;6.818;2022-11-09T03:06:17;99716.91;;;14.34;69.56
72892;BME280;61032;50.782;6.818;2022-11-09T03:07:17;99722.03;;;14.35;69.52
72892;BME280;61032;50.782;6.818;2022-11-09T03:08:17;99712.50;;;14.29;69.61
72892;BME280;61032;50.782;6.818;2022-11-09T03:09:18;99716.50;;;14.32;69.79
72892;BME280;61032;50.782;6.818;2022-11-09T03:10:18;99713.66;;;14.28;69.89
72892;BME280;61032;50.782;6.818;2022-11-09T03:11:18;99718.03;;;14.29;69.85
72892;BME280;61032;50.782;6.818;2022-11-09T03:12:19;99722.34;;;14.27;69.79
72892;BME280;61032;50.782;6.818;2022-11-09T03:13:28;99718.78;;;14.26;69.91
72892;BME280;61032;50.782;6.818;2022-11-09T03:14:29;99728.25;;;14.25;70.30
72892;BME280;61032;50.782;6.818;2022-11-09T03:15:29;99720.38;;;14.27;69.90
72892;BME280;61032;50.782;6.818;2022-11-09T03:16:30;99718.84;;;14.30;69.54
72892;BME280;61032;50.782;6.818;2022-11-09T03:17:31;99733.03;;;14.28;69.62
72892;BME280;61032;50.782;6.818;2022-11-09T03:18:31;99724.34;;;14.30;69.73
72892;BME280;61032;50.782;6.818;2022-11-09T03:19:32;99727.50;;;14.28;69.75
72892;BME280;61032;50.782;6.818;2022-11-09T03:20:32;99732.22;;;14.28;69.81
72892;BME280;61032;50.782;6.818;2022-11-09T03:21:33;99734.56;;;14.26;70.25
72892;BME280;61032;50.782;6.818;2022-11-09T03:22:33;99732.53;;;14.23;70.08
72892;BME280;61032;50.782;6.818;2022-11-09T03:23:34;99733.34;;;14.23;70.26
72892;BME280;61032;50.782;6.818;2022-11-09T03:24:34;99735.25;;;14.19;70.42
72892;BME280;61032;50.782;6.818;2022-11-09T03:25:35;99730.47;;;14.16;70.40
72892;BME280;61032;50.782;6.818;2022-11-09T03:26:35;99732.81;;;14.14;70.34
72892;BME280;61032;50.782;6.818;2022-11-09T03:27:36;99732.00;;;14.14;70.64
72892;BME280;61032;50.782;6.818;2022-11-09T03:28:36;99729.22;;;14.10;70.91
72892;BME280;61032;50.782;6.818;2022-11-09T03:29:36;99733.94;;;14.09;70.86
72892;BME280;61032;50.782;6.818;2022-11-09T03:30:36;99739.47;;;14.09;71.03
72892;BME280;61032;50.782;6.818;2022-11-09T03:31:37;99735.91;;;14.09;70.96
72892;BME280;61032;50.782;6.818;2022-11-09T03:32:38;99726.44;;;14.10;71.03
72892;BME280;61032;50.782;6.818;2022-11-09T03:33:39;99728.03;;;14.11;70.89
72892;BME280;61032;50.782;6.818;2022-11-09T03:34:40;99732.41;;;14.12;70.94
72892;BME280;61032;50.782;6.818;2022-11-09T03:35:40;99728.41;;;14.09;70.71
72892;BME280;61032;50.782;6.818;2022-11-09T03:36:42;99734.75;;;14.10;70.71
72892;BME280;61032;50.782;6.818;2022-11-09T03:37:43;99730.38;;;14.09;70.85
72892;BME280;61032;50.782;6.818;2022-11-09T03:38:43;99736.38;;;14.15;70.57
72892;BME280;61032;50.782;6.818;2022-11-09T03:39:43;99725.75;;;14.17;70.36
72892;BME280;61032;50.782;6.818;2022-11-09T03:40:44;99720.25;;;14.20;70.29
72892;BME280;61032;50.782;6.818;2022-11-09T03:41:44;99730.47;;;14.16;70.32
72892;BME280;61032;50.782;6.818;2022-11-09T03:42:45;99738.34;;;14.14;70.41
72892;BME280;61032;50.782;6.818;2022-11-09T03:43:46;99744.28;;;14.16;70.50
72892;BME280;61032;50.782;6.818;2022-11-09T03:44:46;99742.38;;;14.20;70.46
72892;BME280;61032;50.782;6.818;2022-11-09T03:45:47;99740.00;;;14.19;70.44
72892;BME280;61032;50.782;6.818;2022-11-09T03:46:47;99741.53;;;14.16;70.36
72892;BME280;61032;50.782;6.818;2022-11-09T03:47:48;99739.94;;;14.15;70.51
72892;BME280;61032;50.782;6.818;2022-11-09T03:48:48;99750.97;;;14.12;70.49
72892;BME280;61032;50.782;6.818;2022-11-09T03:49:48;99743.88;;;14.14;70.55
72892;BME280;61032;50.782;6.818;2022-11-09T03:50:48;99730.47;;;14.16;70.34
72892;BME280;61032;50.782;6.818;2022-11-09T03:51:49;99736.78;;;14.17;70.39
72892;BME280;61032;50.782;6.818;2022-11-09T03:52:50;99743.50;;;14.16;70.51
72892;BME280;61032;50.782;6.818;2022-11-09T03:53:50;99751.75;;;14.12;70.66
72892;BME280;61032;50.782;6.818;2022-11-09T03:54:51;99754.53;;;14.12;70.50
72892;BME280;61032;50.782;6.818;2022-11-09T03:55:51;99752.44;;;14.05;70.58
72892;BME280;61032;50.782;6.818;2022-11-09T03:56:51;99756.81;;;14.06;70.13
72892;BME280;61032;50.782;6.818;2022-11-09T03:57:52;99753.66;;;14.08;70.79
72892;BME280;61032;50.782;6.818;2022-11-09T03:58:52;99754.13;;;14.14;70.32
72892;BME280;61032;50.782;6.818;2022-11-09T03:59:53;99754.56;;;14.16;70.48
72892;BME280;61032;50.782;6.818;2022-11-09T04:00:53;99741.53;;;14.16;70.23
72892;BME280;61032;50.782;6.818;2022-11-09T04:01:53;99749.38;;;14.14;70.34
72892;BME280;61032;50.782;6.818;2022-11-09T04:02:54;99749.38;;;14.14;70.05
72892;BME280;61032;50.782;6.818;2022-11-09T04:03:54;99751.34;;;14.14;70.30
72892;BME280;61032;50.782;6.818;2022-11-09T04:04:54;99742.69;;;14.15;70.04
72892;BME280;61032;50.782;6.818;2022-11-09T04:05:57;99746.63;;;14.14;69.71
72892;BME280;61032;50.782;6.818;2022-11-09T04:06:57;99760.06;;;14.12;69.91
72892;BME280;61032;50.782;6.818;2022-11-09T04:07:58;99756.88;;;14.14;69.76
72892;BME280;61032;50.782;6.818;2022-11-09T04:08:58;99754.56;;;14.16;69.80
72892;BME280;61032;50.782;6.818;2022-11-09T04:09:58;99751.03;;;14.19;69.67
72892;BME280;61032;50.782;6.818;2022-11-09T04:10:58;99746.69;;;14.18;69.50
72892;BME280;61032;50.782;6.818;2022-11-09T04:11:59;99751.41;;;14.17;69.45
72892;BME280;61032;50.782;6.818;2022-11-09T04:12:59;99751.78;;;14.16;69.67
72892;BME280;61032;50.782;6.818;2022-11-09T04:13:59;99751.00;;;14.15;69.64
72892;BME280;61032;50.782;6.818;2022-11-09T04:15:00;99752.22;;;14.18;69.41
72892;BME280;61032;50.782;6.818;2022-11-09T04:16:00;99751.09;;;14.22;69.52
72892;BME280;61032;50.782;6.818;2022-11-09T04:17:00;99754.22;;;14.21;69.37
72892;BME280;61032;50.782;6.818;2022-11-09T04:18:01;99753.00;;;14.18;69.42
72892;BME280;61032;50.782;6.818;2022-11-09T04:19:03;99757.06;;;14.24;69.32
72892;BME280;61032;50.782;6.818;2022-11-09T04:20:04;99749.66;;;14.32;69.18
72892;BME280;61032;50.782;6.818;2022-11-09T04:21:05;99755.63;;;14.34;68.86
72892;BME280;61032;50.782;6.818;2022-11-09T04:22:06;99765.03;;;14.29;69.11
72892;BME280;61032;50.782;6.818;2022-11-09T04:23:09;99759.13;;;14.31;69.26
72892;BME280;61032;50.782;6.818;2022-11-09T04:24:10;99759.88;;;14.28;69.31
72892;BME280;61032;50.782;6.818;2022-11-09T04:25:10;99757.91;;;14.28;69.26
72892;BME280;61032;50.782;6.818;2022-11-09T04:26:10;99758.34;;;14.30;69.19
72892;BME280;61032;50.782;6.818;2022-11-09T04:27:11;99755.94;;;14.29;69.16
72892;BME280;61032;50.782;6.818;2022-11-09T04:28:11;99753.19;;;14.29;69.02
72892;BME280;61032;50.782;6.818;2022-11-09T04:29:12;99753.56;;;14.27;69.24
72892;BME280;61032;50.782;6.818;2022-11-09T04:30:12;99751.59;;;14.28;69.16
72892;BME280;61032;50.782;6.818;2022-11-09T04:31:14;99756.31;;;14.27;69.38
72892;BME280;61032;50.782;6.818;2022-11-09T04:32:17;99751.91;;;14.23;69.61
72892;BME280;61032;50.782;6.818;2022-11-09T04:33:18;99747.16;;;14.23;69.66
72892;BME280;61032;50.782;6.818;2022-11-09T04:34:19;99749.13;;;14.23;69.20
72892;BME280;61032;50.782;6.818;2022-11-09T04:35:19;99755.88;;;14.25;69.58
72892;BME280;61032;50.782;6.818;2022-11-09T04:36:20;99755.88;;;14.25;69.47
72892;BME280;61032;50.782;6.818;2022-11-09T04:37:20;99755.16;;;14.28;69.41
72892;BME280;61032;50.782;6.818;2022-11-09T04:38:20;99750.03;;;14.30;69.24
72892;BME280;61032;50.782;6.818;2022-11-09T04:39:21;99753.56;;;14.27;69.35
72892;BME280;61032;50.782;6.818;2022-11-09T04:40:23;99751.53;;;14.24;69.58
72892;BME280;61032;50.782;6.818;2022-11-09T04:41:23;99755.41;;;14.20;69.85
72892;BME280;61032;50.782;6.818;2022-11-09T04:42:23;99754.22;;;14.21;69.69
72892;BME280;61032;50.782;6.818;2022-11-09T04:43:24;99757.06;;;14.24;69.83
72892;BME280;61032;50.782;6.818;2022-11-09T04:44:24;99755.88;;;14.25;69.66
72892;BME280;61032;50.782;6.818;2022-11-09T04:45:24;99755.47;;;14.23;69.81
72892;BME280;61032;50.782;6.818;2022-11-09T04:46:25;99754.72;;;14.26;69.97
72892;BME280;61032;50.782;6.818;2022-11-09T04:47:26;99758.66;;;14.25;69.66
72892;BME280;61032;50.782;6.818;2022-11-09T04:48:27;99765.78;;;14.26;69.91
72892;BME280;61032;50.782;6.818;2022-11-09T04:49:27;99747.59;;;14.25;69.58
72892;BME280;61032;50.782;6.818;2022-11-09T04:50:28;99757.47;;;14.26;69.63
72892;BME280;61032;50.782;6.818;2022-11-09T04:51:28;99755.16;;;14.28;69.80
72892;BME280;61032;50.782;6.818;2022-11-09T04:52:29;99755.94;;;14.29;69.64
72892;BME280;61032;50.782;6.818;2022-11-09T04:53:29;99757.16;;;14.31;69.80
72892;BME280;61032;50.782;6.818;2022-11-09T04:54:30;99754.03;;;14.33;69.51
72892;BME280;61032;50.782;6.818;2022-11-09T04:55:30;99754.84;;;14.33;69.49
72892;BME280;61032;50.782;6.818;2022-11-09T04:56:30;99755.19;;;14.32;69.73
72892;BME280;61032;50.782;6.818;2022-11-09T04:57:30;99756.41;;;14.34;69.84
72892;BME280;61032;50.782;6.818;2022-11-09T04:58:31;99757.59;;;14.33;69.68
72892;BME280;61032;50.782;6.818;2022-11-09T04:59:31;99756.81;;;14.33;69.33
72892;BME280;61032;50.782;6.818;2022-11-09T05:00:32;99770.22;;;14.34;69.52
72892;BME280;61032;50.782;6.818;2022-11-09T05:01:32;99764.28;;;14.32;69.68
72892;BME280;61032;50.782;6.818;2022-11-09T05:02:33;99765.47;;;14.31;69.76
72892;BME280;61032;50.782;6.818;2022-11-09T05:03:33;99772.59;;;14.32;70.00
72892;BME280;61032;50.782;6.818;2022-11-09T05:04:33;99768.66;;;14.33;69.77
72892;BME280;61032;50.782;6.818;2022-11-09T05:05:35;99768.66;;;14.33;69.70
72892;BME280;61032;50.782;6.818;2022-11-09T05:06:36;99762.69;;;14.31;70.11
72892;BME280;61032;50.782;6.818;2022-11-09T05:07:36;99763.81;;;14.27;70.12
72892;BME280;61032;50.782;6.818;2022-11-09T05:08:37;99765.78;;;14.26;70.20
72892;BME280;61032;50.782;6.818;2022-11-09T05:09:37;99765.34;;;14.24;70.26
72892;BME280;61032;50.782;6.818;2022-11-09T05:10:37;99774.06;;;14.26;70.44
72892;BME280;61032;50.782;6.818;2022-11-09T05:11:38;99765.34;;;14.24;70.47
72892;BME280;61032;50.782;6.818;2022-11-09T05:12:38;99768.13;;;14.24;70.72
72892;BME280;61032;50.782;6.818;2022-11-09T05:13:38;99768.53;;;14.26;70.70
72892;BME280;61032;50.782;6.818;2022-11-09T05:14:38;99766.16;;;14.25;70.83
72892;BME280;61032;50.782;6.818;2022-11-09T05:15:39;99768.53;;;14.26;70.75
72892;BME280;61032;50.782;6.818;2022-11-09T05:16:40;99764.56;;;14.24;70.87
72892;BME280;61032;50.782;6.818;2022-11-09T05:17:40;99765.78;;;14.26;70.73
72892;BME280;61032;50.782;6.818;2022-11-09T05:18:40;99763.81;;;14.27;70.76
72892;BME280;61032;50.782;6.818;2022-11-09T05:19:41;99763.38;;;14.25;70.78
72892;BME280;61032;50.782;6.818;2022-11-09T05:20:41;99762.16;;;14.22;70.85
72892;BME280;61032;50.782;6.818;2022-11-09T05:21:41;99770.13;;;14.27;71.18
72892;BME280;61032;50.782;6.818;2022-11-09T05:22:42;99768.53;;;14.26;71.11
72892;BME280;61032;50.782;6.818;2022-11-09T05:24:01;99764.50;;;14.20;71.46
72892;BME280;61032;50.782;6.818;2022-11-09T05:25:02;99761.31;;;14.18;71.55
72892;BME280;61032;50.782;6.818;2022-11-09T05:26:02;99755.72;;;14.15;71.43